Ocean Jupiter — CFK3107 — position and weather

sailwx.info

Track history (hours):
 
Tides and Currents Weather Stations Pressure Air Temp Water Temp Dewpoint Dewpoint Depression Visibility Wind Speed Wind Dir Waves Ship Positions

Ocean Jupiter

Last reported at 2014-Jul-28 03:33 UTC. Time now 2014-Jul-28 04:24 UTC.
Position N 46°20' W 072°33'.

Length 24 m; draft 3.2 m.

Type: Tug. MMSI: 316008255.

Date/timePositionNaut miles runAvg speedWind from/ knotsBaromVisibWave heightAir tempDewpointWater temp
2014-Jul-28 03:33N 46°20' W 072°33'7 6.9
2014-Jul-28 02:34N 46°24' W 072°24'8 7.7
2014-Jul-28 01:34N 46°28' W 072°15'7 0.2
2014-Jul-26 21:31N 46°33' W 072°09'1111.3
2014-Jul-26 20:33N 46°26' W 072°21'1111.4
2014-Jul-26 19:33N 46°19' W 072°33'1110.9
2014-Jul-26 18:33N 46°14' W 072°47'18 0.6
2014-Jul-25 10:23N 46°03' W 073°08'0 0.0
2014-Jul-25 07:31N 46°03' W 073°08'1 1.0
2014-Jul-25 06:33N 46°03' W 073°07'0 0.0
2014-Jul-24 01:10N 46°03' W 073°07'0 0.2
2014-Jul-24 00:31N 46°03' W 073°07'0 0.0
2014-Jul-23 05:16N 46°03' W 073°08'0 0.1
2014-Jul-23 04:33N 46°03' W 073°08'0 0.4
2014-Jul-23 03:23N 46°03' W 073°08'0 0.0
2014-Jul-21 03:19N 46°03' W 073°08'2 0.1
2014-Jul-20 11:33N 46°03' W 073°06'27 1.0
2014-Jul-19 09:03N 46°18' W 072°34'1912.1
2014-Jul-19 07:32N 46°09' W 072°57'9 2.0
2014-Jul-19 03:04N 46°03' W 073°07'1 0.6
2014-Jul-19 01:29N 46°03' W 073°08'0 0.4
2014-Jul-19 00:33N 46°03' W 073°08'0 0.0
2014-Jul-18 04:33N 46°03' W 073°08'  
Track history (hours):
 
Tides and Currents Weather Stations Pressure Air Temp Water Temp Dewpoint Dewpoint Depression Visibility Wind Speed Wind Dir Waves Ship Positions

Ocean Jupiter

Last reported at 2014-Jul-28 03:33 UTC. Time now 2014-Jul-28 04:24 UTC.
Position N 46°20' W 072°33'.

Length 24 m; draft 3.2 m.

Type: Tug. MMSI: 316008255.

Date/timePositionNaut miles runAvg speedWind from/ knotsBaromVisibWave heightAir tempDewpointWater temp
2014-Jul-28 03:33N 46°20' W 072°33'7 6.9
2014-Jul-28 02:34N 46°24' W 072°24'8 7.7
2014-Jul-28 01:34N 46°28' W 072°15'7 0.2
2014-Jul-26 21:31N 46°33' W 072°09'1111.3
2014-Jul-26 20:33N 46°26' W 072°21'1111.4
2014-Jul-26 19:33N 46°19' W 072°33'1110.9
2014-Jul-26 18:33N 46°14' W 072°47'18 0.6
2014-Jul-25 10:23N 46°03' W 073°08'0 0.0
2014-Jul-25 07:31N 46°03' W 073°08'1 1.0
2014-Jul-25 06:33N 46°03' W 073°07'0 0.0
2014-Jul-24 01:10N 46°03' W 073°07'0 0.2
2014-Jul-24 00:31N 46°03' W 073°07'0 0.0
2014-Jul-23 05:16N 46°03' W 073°08'0 0.1
2014-Jul-23 04:33N 46°03' W 073°08'0 0.4
2014-Jul-23 03:23N 46°03' W 073°08'0 0.0
2014-Jul-21 03:19N 46°03' W 073°08'2 0.1
2014-Jul-20 11:33N 46°03' W 073°06'27 1.0
2014-Jul-19 09:03N 46°18' W 072°34'1912.1
2014-Jul-19 07:32N 46°09' W 072°57'9 2.0
2014-Jul-19 03:04N 46°03' W 073°07'1 0.6
2014-Jul-19 01:29N 46°03' W 073°08'0 0.4
2014-Jul-19 00:33N 46°03' W 073°08'0 0.0
2014-Jul-18 04:33N 46°03' W 073°08'  

Dump ship's entire track history